Alts de San Benito, Puerto Rico
Current Conditions -  °F | °C
As of 11:53 PM on Monday 22 Dec 2014 (Local Time) from TJNR Reporting Station
Broken Clouds Broken Clouds  
Wind Chill: 79°   Ceiling: 4700
Heat Index: 82°   Visibility: 10mi
Dew Point: 73°   Wind: 6mph
Humidity: 82%   Direction: 80°E
Pressure: 30.05"   Gusts: NA
Location:  18.1494°N, 65.8294°W
Report Text: TJNR 230353Z AUTO 08005KT 10SM FEW022 SCT034 BKN047 26/23 A3005 RMK AO2 SLP176 T02610228 402940228
Loading
Personal Weather Stations






























Interactive Weather Map New forecast layout! Learn more

10-Day Weather Forecast

Advertisements
Track Severe Weather on mobile